Atkinsons Mills, Pennsylvania
Current Conditions -  °F | °C
As of 7:53 AM on Saturday 25 Oct 2014 (Local Time) from KUNV Reporting Station
Overcast Overcast  
Wind Chill: 42°   Ceiling: 4700
Heat Index: 45°   Visibility: 10mi
Dew Point: 39°   Wind: 5mph
Humidity: 81%   Direction: 240°WSW
Pressure: 29.93"   Gusts: NA
Location:  40.5138°N, 77.7384°W
Report Text: KUNV 251153Z 24004KT 10SM OVC047 07/04 A2993
Loading
Personal Weather Stations






























Interactive Weather Map
Tropical Storm Tracking
New forecast layout! Learn more

10-Day Weather Forecast

Advertisements
Track Severe Weather on mobile